createdAt,value
2018-04-11T00:00:54.465Z,66.96
2018-04-11T00:01:54.362Z,67.34
2018-04-11T00:02:54.270Z,67.53
2018-04-11T00:03:54.172Z,67.82
2018-04-11T00:04:54.076Z,67.24
2018-04-11T00:05:53.974Z,67.91
2018-04-11T00:06:54.132Z,68.01
2018-04-11T00:07:53.780Z,68.10
2018-04-11T00:08:53.688Z,67.24
2018-04-11T00:09:53.597Z,67.43
2018-04-11T00:10:53.494Z,67.53
2018-04-11T00:11:53.395Z,67.14
2018-04-11T00:12:53.301Z,67.24
2018-04-11T00:13:53.209Z,67.63
2018-04-11T00:14:53.108Z,67.14
2018-04-11T00:15:53.017Z,67.05
2018-04-11T00:16:52.913Z,66.67
2018-04-11T00:17:52.826Z,66.96
2018-04-11T00:18:52.721Z,67.05
2018-04-11T00:19:52.630Z,67.53
2018-04-11T00:20:52.541Z,66.38
2018-04-11T00:21:52.437Z,66.57
2018-04-11T00:22:52.346Z,66.67
2018-04-11T00:23:52.243Z,66.57
2018-04-11T00:24:52.152Z,66.86
2018-04-11T00:25:52.049Z,66.57
2018-04-11T00:26:51.966Z,65.81
2018-04-11T00:27:51.855Z,66.09
2018-04-11T00:28:51.764Z,65.90
2018-04-11T00:29:51.660Z,66.38
2018-04-11T00:30:51.568Z,66.06
2018-04-11T00:31:51.476Z,66.06
2018-04-11T00:32:51.372Z,65.87
2018-04-11T00:33:51.281Z,65.97
2018-04-11T00:34:51.177Z,65.48
2018-04-11T00:35:51.086Z,65.20
2018-04-11T00:36:50.982Z,65.20
2018-04-11T00:37:50.891Z,64.53
2018-04-11T00:38:50.787Z,64.43
2018-04-11T00:39:50.695Z,63.76
2018-04-11T00:40:50.593Z,63.45
2018-04-11T00:41:50.503Z,63.35
2018-04-11T00:42:50.399Z,62.49
2018-04-11T00:43:50.308Z,62.40
2018-04-11T00:44:50.217Z,62.78
2018-04-11T00:45:50.117Z,62.59
2018-04-11T00:46:50.023Z,62.01
2018-04-11T00:47:49.935Z,62.40
2018-04-11T00:48:49.832Z,62.62
2018-04-11T00:49:49.726Z,62.49
2018-04-11T00:50:49.635Z,62.33
2018-04-11T00:51:49.533Z,62.62
2018-04-11T00:52:49.445Z,62.81
2018-04-11T00:53:49.338Z,62.78
2018-04-11T00:54:49.246Z,62.24
2018-04-11T00:55:49.143Z,62.68
2018-04-11T00:56:49.052Z,62.24
2018-04-11T00:57:48.949Z,62.62
2018-04-11T00:58:48.858Z,62.24
2018-04-11T00:59:48.767Z,63.10
2018-04-11T01:00:48.662Z,61.95
2018-04-11T01:01:48.565Z,62.81
2018-04-11T01:02:48.468Z,62.14
2018-04-11T01:03:48.370Z,62.24
2018-04-11T01:04:48.275Z,61.92
2018-04-11T01:05:48.170Z,61.95
2018-04-11T01:06:48.079Z,62.04
2018-04-11T01:07:47.998Z,63.10
2018-04-11T01:08:47.885Z,63.10
2018-04-11T01:09:47.782Z,63.57
2018-04-11T01:10:47.690Z,63.39
2018-04-11T01:11:47.587Z,64.25
2018-04-11T01:12:47.497Z,64.05
2018-04-11T01:13:47.394Z,64.15
2018-04-11T01:14:47.301Z,63.76
2018-04-11T01:15:47.198Z,64.25
2018-04-11T01:16:47.109Z,63.48
2018-04-11T01:17:47.005Z,63.76
2018-04-11T01:18:46.913Z,63.48
2018-04-11T01:19:46.811Z,64.05
2018-04-11T01:20:46.720Z,64.34
2018-04-11T01:21:46.617Z,64.05
2018-04-11T01:22:46.529Z,63.57
2018-04-11T01:23:46.423Z,64.05
2018-04-11T01:24:46.332Z,64.05
2018-04-11T01:25:46.228Z,64.05
2018-04-11T01:26:46.138Z,63.76
2018-04-11T01:27:46.033Z,64.05
2018-04-11T01:28:45.944Z,63.76
2018-04-11T01:29:45.841Z,62.90
2018-04-11T01:30:45.764Z,63.29
2018-04-11T01:31:45.646Z,63.57
2018-04-11T01:32:45.559Z,63.29
2018-04-11T01:33:45.452Z,63.67
2018-04-11T01:34:45.360Z,63.76
2018-04-11T01:35:45.271Z,63.67
2018-04-11T01:36:45.167Z,63.39
2018-04-11T01:37:45.063Z,63.48
2018-04-11T01:38:44.972Z,63.48
2018-04-11T01:39:44.869Z,63.19
2018-04-11T01:40:44.777Z,63.57
2018-04-11T01:41:44.676Z,64.05
2018-04-11T01:42:44.574Z,64.05
2018-04-11T01:43:44.480Z,63.57
2018-04-11T01:44:44.378Z,63.67
2018-04-11T01:45:44.286Z,63.39
2018-04-11T01:46:44.183Z,63.10
2018-04-11T01:47:44.091Z,63.29
2018-04-11T01:48:43.990Z,62.81
2018-04-11T01:49:43.898Z,62.71
2018-04-11T01:50:43.795Z,62.71
2018-04-11T01:51:43.708Z,62.62
2018-04-11T01:52:43.601Z,62.71
2018-04-11T01:53:43.511Z,62.62
2018-04-11T01:54:43.408Z,62.33
2018-04-11T01:55:43.316Z,62.43
2018-04-11T01:56:43.212Z,62.33
2018-04-11T01:57:43.122Z,62.04
2018-04-11T01:58:43.020Z,62.14
2018-04-11T01:59:42.930Z,62.52
2018-04-11T02:00:42.825Z,62.81
2018-04-11T02:01:42.735Z,62.33
2018-04-11T02:02:42.632Z,62.04
2018-04-11T02:03:42.540Z,62.14
2018-04-11T02:04:42.437Z,61.85
2018-04-11T02:05:42.347Z,62.14
2018-04-11T02:06:42.244Z,61.66
2018-04-11T02:07:42.157Z,61.82
2018-04-11T02:08:42.053Z,61.72
2018-04-11T02:09:41.987Z,61.82
2018-04-11T02:10:41.856Z,60.96
2018-04-11T02:11:41.777Z,61.06
2018-04-11T02:12:41.661Z,61.16
2018-04-11T02:13:41.559Z,60.58
2018-04-11T02:14:41.467Z,60.39
2018-04-11T02:15:41.376Z,60.20
2018-04-11T02:16:41.271Z,60.01
2018-04-11T02:17:41.169Z,60.30
2018-04-11T02:18:41.080Z,60.30
2018-04-11T02:19:40.975Z,60.49
2018-04-11T02:20:40.883Z,60.20
2018-04-11T02:21:40.884Z,60.39
2018-04-11T02:22:40.690Z,60.01
2018-04-11T02:23:40.591Z,60.30
2018-04-11T02:24:40.494Z,60.68
2018-04-11T02:25:40.392Z,60.58
2018-04-11T02:26:40.301Z,60.30
2018-04-11T02:27:40.198Z,60.01
2018-04-11T02:28:40.107Z,60.01
2018-04-11T02:29:40.008Z,60.30
2018-04-11T02:30:39.913Z,60.58
2018-04-11T02:31:39.816Z,60.10
2018-04-11T02:32:39.721Z,59.72
2018-04-11T02:33:39.617Z,60.01
2018-04-11T02:34:39.526Z,59.53
2018-04-11T02:35:39.423Z,59.24
2018-04-11T02:36:39.331Z,59.53
2018-04-11T02:37:39.228Z,59.91
2018-04-11T02:38:39.125Z,59.22
2018-04-11T02:39:39.035Z,59.53
2018-04-11T02:40:38.930Z,59.34
2018-04-11T02:41:38.840Z,59.41
2018-04-11T02:42:38.736Z,59.72
2018-04-11T02:43:38.647Z,59.63
2018-04-11T02:44:38.543Z,59.12
2018-04-11T02:45:38.452Z,58.73
2018-04-11T02:46:38.360Z,58.36
2018-04-11T02:47:38.257Z,58.26
2018-04-11T02:48:38.153Z,57.97
2018-04-11T02:49:38.062Z,57.59
2018-04-11T02:50:37.959Z,56.73
2018-04-11T02:51:37.869Z,57.21
2018-04-11T02:52:37.765Z,56.63
2018-04-11T02:53:37.661Z,55.87
2018-04-11T02:54:37.572Z,55.84
2018-04-11T02:55:37.467Z,54.70
2018-04-11T02:56:37.376Z,54.50
2018-04-11T02:57:37.273Z,53.45
2018-04-11T02:58:37.181Z,53.65
2018-04-11T02:59:37.078Z,53.36
2018-04-11T03:00:36.991Z,53.45
2018-04-11T03:01:36.885Z,52.88
2018-04-11T03:02:36.795Z,52.50
2018-04-11T03:03:36.690Z,51.17
2018-04-11T03:04:36.601Z,51.33
2018-04-11T03:05:36.497Z,50.47
2018-04-11T03:06:36.408Z,50.18
2018-04-11T03:07:36.302Z,50.09
2018-04-11T03:08:36.200Z,49.33
2018-04-11T03:09:36.108Z,48.85
2018-04-11T03:10:36.006Z,49.04
2018-04-11T03:11:36.164Z,48.47
2018-04-11T03:12:35.815Z,48.08
2018-04-11T03:13:35.720Z,47.89
2018-04-11T03:14:35.620Z,48.18
2018-04-11T03:15:35.527Z,48.47
2018-04-11T03:16:35.423Z,48.18
2018-04-11T03:17:35.321Z,48.28
2018-04-11T03:18:35.230Z,48.57
2018-04-11T03:19:35.127Z,48.57
2018-04-11T03:20:35.035Z,48.66
2018-04-11T03:21:34.931Z,48.18
2018-04-11T03:22:34.841Z,48.47
2018-04-11T03:23:34.737Z,48.57
2018-04-11T03:24:34.645Z,48.28
2018-04-11T03:25:34.541Z,48.18
2018-04-11T03:26:34.439Z,47.80
2018-04-11T03:27:34.349Z,47.80
2018-04-11T03:28:34.245Z,48.57
2018-04-11T03:29:34.154Z,48.18
2018-04-11T03:30:34.050Z,47.99
2018-04-11T03:31:33.960Z,48.57
2018-04-11T03:32:33.859Z,48.28
2018-04-11T03:33:33.818Z,48.57
2018-04-11T03:34:33.660Z,48.47
2018-04-11T03:35:33.559Z,49.26
2018-04-11T03:36:33.469Z,49.04
2018-04-11T03:37:33.365Z,49.07
2018-04-11T03:38:33.273Z,49.13
2018-04-11T03:39:33.174Z,48.88
2018-04-11T03:40:33.080Z,48.88
2018-04-11T03:41:32.977Z,48.85
2018-04-11T03:42:32.885Z,48.94
2018-04-11T03:43:32.784Z,49.16
2018-04-11T03:44:32.682Z,50.59
2018-04-11T03:45:32.589Z,50.59
2018-04-11T03:46:32.486Z,50.02
2018-04-11T03:47:32.398Z,49.64
2018-04-11T03:48:32.290Z,50.40
2018-04-11T03:49:32.201Z,51.07
2018-04-11T03:50:32.098Z,51.17
2018-04-11T03:51:32.006Z,51.54
2018-04-11T03:52:31.902Z,51.26
2018-04-11T03:53:31.800Z,51.35
2018-04-11T03:54:31.709Z,51.26
2018-04-11T03:55:31.605Z,50.98
2018-04-11T03:56:31.514Z,51.17
2018-04-11T03:57:31.410Z,51.35
2018-04-11T03:58:31.319Z,51.54
2018-04-11T03:59:31.218Z,51.17
2018-04-11T04:00:31.126Z,51.54
2018-04-11T04:01:31.022Z,51.83
2018-04-11T04:02:30.920Z,52.31
2018-04-11T04:03:30.829Z,52.12
2018-04-11T04:04:30.725Z,52.40
2018-04-11T04:05:30.633Z,52.40
2018-04-11T04:06:30.533Z,51.83
2018-04-11T04:07:30.441Z,52.03
2018-04-11T04:08:30.337Z,52.31
2018-04-11T04:09:30.234Z,52.50
2018-04-11T04:10:30.155Z,52.03
2018-04-11T04:11:30.040Z,52.69
2018-04-11T04:12:29.951Z,52.31
2018-04-11T04:13:29.849Z,52.40
2018-04-11T04:14:29.754Z,52.40
2018-04-11T04:15:29.650Z,52.12
2018-04-11T04:16:29.560Z,51.74
2018-04-11T04:17:29.457Z,51.83
2018-04-11T04:18:29.353Z,51.83
2018-04-11T04:19:29.262Z,52.50
2018-04-11T04:20:29.159Z,52.12
2018-04-11T04:21:29.069Z,51.54
2018-04-11T04:22:28.966Z,51.74
2018-04-11T04:23:28.874Z,51.45
2018-04-11T04:24:28.771Z,51.93
2018-04-11T04:25:28.669Z,51.35
2018-04-11T04:26:28.578Z,51.17
2018-04-11T04:27:28.474Z,51.26
2018-04-11T04:28:28.382Z,51.17
2018-04-11T04:29:28.279Z,51.17
2018-04-11T04:30:28.188Z,50.21
2018-04-11T04:31:28.085Z,51.07
2018-04-11T04:32:27.993Z,50.69
2018-04-11T04:33:27.890Z,51.17
2018-04-11T04:34:27.787Z,51.07
2018-04-11T04:35:27.696Z,49.54
2018-04-11T04:36:27.843Z,50.21
2018-04-11T04:37:27.502Z,50.49
2018-04-11T04:38:27.401Z,50.40
2018-04-11T04:39:27.296Z,50.98
2018-04-11T04:40:27.205Z,49.93
2018-04-11T04:41:27.105Z,50.40
2018-04-11T04:42:27.010Z,50.31
2018-04-11T04:43:26.906Z,51.35
2018-04-11T04:44:26.816Z,50.31
2018-04-11T04:45:26.714Z,50.40
2018-04-11T04:46:26.610Z,49.83
2018-04-11T04:47:26.518Z,50.78
2018-04-11T04:48:26.415Z,51.45
2018-04-11T04:49:26.326Z,50.69
2018-04-11T04:50:26.222Z,50.49
2018-04-11T04:51:26.130Z,50.98
2018-04-11T04:52:26.027Z,51.26
2018-04-11T04:53:25.926Z,51.26
2018-04-11T04:54:25.833Z,50.88
2018-04-11T04:55:25.729Z,51.54
2018-04-11T04:56:25.638Z,51.35
2018-04-11T04:57:25.537Z,51.17
2018-04-11T04:58:25.445Z,51.93
2018-04-11T04:59:25.344Z,51.54
2018-04-11T05:00:25.254Z,51.07
2018-04-11T05:01:25.149Z,50.31
2018-04-11T05:02:25.046Z,50.40
2018-04-11T05:03:24.953Z,50.69
2018-04-11T05:04:24.852Z,51.17
2018-04-11T05:05:24.758Z,50.69
2018-04-11T05:06:24.654Z,51.07
2018-04-11T05:07:24.565Z,50.31
2018-04-11T05:08:24.461Z,50.31
2018-04-11T05:09:24.358Z,50.88
2018-04-11T05:10:24.266Z,50.78
2018-04-11T05:11:24.163Z,50.49
2018-04-11T05:12:24.076Z,49.44
2018-04-11T05:13:23.972Z,47.25
2018-04-11T05:14:23.878Z,47.73
2018-04-11T05:15:23.777Z,46.48
2018-04-11T05:16:23.673Z,48.11
2018-04-11T05:17:23.584Z,47.63
2018-04-11T05:18:23.479Z,47.03
2018-04-11T05:19:23.386Z,46.08
2018-04-11T05:20:23.299Z,46.56
2018-04-11T05:21:23.193Z,45.13
2018-04-11T05:22:23.091Z,45.99
2018-04-11T05:23:22.987Z,43.60
2018-04-11T05:24:22.898Z,44.56
2018-04-11T05:25:22.791Z,46.56
2018-04-11T05:26:22.703Z,43.79
2018-04-11T05:27:22.598Z,45.15
2018-04-11T05:28:22.507Z,46.66
2018-04-11T05:29:22.402Z,47.92
2018-04-11T05:30:22.300Z,45.72
2018-04-11T05:31:22.212Z,47.89
2018-04-11T05:32:22.106Z,48.66
2018-04-11T05:33:22.016Z,47.44
2018-04-11T05:34:21.924Z,48.39
2018-04-11T05:35:21.818Z,48.08
2018-04-11T05:36:21.718Z,44.87
2018-04-11T05:37:21.615Z,46.48
2018-04-11T05:38:21.526Z,46.47
2018-04-11T05:39:21.419Z,43.98
2018-04-11T05:40:21.330Z,46.27
2018-04-11T05:41:21.225Z,44.74
2018-04-11T05:42:21.122Z,43.32
2018-04-11T05:43:21.031Z,41.50
2018-04-11T05:44:20.927Z,43.41
2018-04-11T05:45:20.837Z,41.22
2018-04-11T05:46:20.984Z,40.55
2018-04-11T05:47:20.643Z,38.73
2018-04-11T05:48:20.539Z,38.45
2018-04-11T05:49:20.437Z,38.45
2018-04-11T05:50:20.346Z,35.87
2018-04-11T05:51:20.242Z,36.83
2018-04-11T05:52:20.151Z,33.87
2018-04-11T05:53:20.058Z,32.73
2018-04-11T05:54:19.946Z,34.63
2018-04-11T05:55:19.854Z,32.06
2018-04-11T05:56:19.751Z,34.54
2018-04-11T05:57:19.660Z,30.05
2018-04-11T05:58:19.556Z,27.76
2018-04-11T05:59:19.453Z,33.11
2018-04-11T06:00:19.362Z,32.73
2018-04-11T06:01:19.264Z,31.58
2018-04-11T06:02:19.167Z,32.36
2018-04-11T06:03:19.065Z,34.27
2018-04-11T06:04:18.961Z,34.65
2018-04-11T06:05:18.872Z,36.85
2018-04-11T06:06:18.773Z,38.68
2018-04-11T06:07:18.680Z,41.16
2018-04-11T06:08:18.575Z,44.62
2018-04-11T06:09:18.470Z,45.58
2018-04-11T06:10:18.379Z,44.70
2018-04-11T06:11:18.276Z,41.64
2018-04-11T06:12:18.184Z,45.01
2018-04-11T06:13:18.081Z,49.21
2018-04-11T06:14:17.990Z,49.80
2018-04-11T06:15:17.887Z,51.46
2018-04-11T06:16:17.795Z,57.17
2018-04-11T06:17:17.693Z,53.28
2018-04-11T06:18:17.603Z,59.20
2018-04-11T06:19:17.500Z,57.97
2018-04-11T06:20:17.408Z,58.83
2018-04-11T06:21:17.303Z,61.12
2018-04-11T06:22:17.214Z,57.61
2018-04-11T06:23:17.111Z,62.59
2018-04-11T06:24:17.020Z,58.88
2018-04-11T06:25:16.917Z,65.17
2018-04-11T06:26:16.825Z,63.03
2018-04-11T06:27:16.734Z,63.64
2018-04-11T06:28:16.633Z,61.63
2018-04-11T06:29:16.543Z,62.30
2018-04-11T06:30:16.452Z,64.22
2018-04-11T06:31:16.349Z,62.37
2018-04-11T06:32:16.261Z,62.30
2018-04-11T06:33:16.164Z,64.72
2018-04-11T06:34:16.061Z,68.46
2018-04-11T06:35:15.971Z,65.33
2018-04-11T06:36:15.868Z,66.83
2018-04-11T06:37:15.780Z,64.63
2018-04-11T06:38:15.686Z,65.58
2018-04-11T06:39:15.583Z,69.32
2018-04-11T06:40:15.504Z,66.06
2018-04-11T06:41:15.400Z,67.15
2018-04-11T06:42:15.299Z,70.79
2018-04-11T06:43:15.206Z,69.64
2018-04-11T06:44:15.115Z,67.50
2018-04-11T06:45:15.025Z,66.83
2018-04-11T06:46:14.957Z,67.37
2018-04-11T06:47:14.840Z,66.22
2018-04-11T06:48:14.741Z,68.65
2018-04-11T06:49:14.637Z,69.64
2018-04-11T06:50:14.546Z,67.91
2018-04-11T06:51:14.453Z,70.12
2018-04-11T06:52:14.364Z,70.21
2018-04-11T06:53:14.261Z,71.69
2018-04-11T06:54:14.183Z,73.19
2018-04-11T06:55:14.114Z,73.32
2018-04-11T06:56:13.978Z,75.46
2018-04-11T06:57:13.885Z,73.51
2018-04-11T06:58:13.798Z,69.54
2018-04-11T06:59:13.706Z,69.70
2018-04-11T07:00:13.614Z,70.41
2018-04-11T07:01:13.509Z,73.26
2018-04-11T07:02:13.418Z,73.35
2018-04-11T07:03:13.328Z,74.22
2018-04-11T07:04:13.237Z,75.18
2018-04-11T07:05:13.147Z,75.04
2018-04-11T07:06:13.043Z,74.95
2018-04-11T07:07:12.950Z,75.46
2018-04-11T07:08:12.861Z,76.81
2018-04-11T07:09:12.769Z,76.62
2018-04-11T07:10:12.679Z,77.04
2018-04-11T07:11:12.601Z,76.75
2018-04-11T07:12:12.486Z,77.61
2018-04-11T07:13:12.395Z,77.80
2018-04-11T07:14:12.334Z,78.67
2018-04-11T07:15:12.212Z,77.42
2018-04-11T07:16:12.121Z,77.00
2018-04-11T07:17:12.031Z,74.27
2018-04-11T07:18:11.939Z,71.88
2018-04-11T07:19:11.849Z,73.32
2018-04-11T07:20:11.759Z,70.60
2018-04-11T07:21:11.670Z,70.79
2018-04-11T07:22:11.565Z,70.41
2018-04-11T07:23:11.473Z,69.42
2018-04-11T07:24:11.382Z,68.36
2018-04-11T07:25:11.305Z,68.65
2018-04-11T07:26:11.201Z,68.17
2018-04-11T07:27:11.109Z,67.69
2018-04-11T07:28:11.006Z,68.65
2018-04-11T07:29:10.915Z,67.11
2018-04-11T07:30:10.825Z,67.21
2018-04-11T07:31:10.735Z,69.03
2018-04-11T07:32:10.642Z,67.08
2018-04-11T07:33:10.539Z,66.13
2018-04-11T07:34:10.449Z,66.22
2018-04-11T07:35:10.358Z,68.07
2018-04-11T07:36:10.268Z,67.60
2018-04-11T07:37:10.168Z,67.50
2018-04-11T07:38:10.072Z,68.27
2018-04-11T07:39:09.985Z,69.51
2018-04-11T07:40:09.931Z,68.74
2018-04-11T07:41:09.788Z,68.94
2018-04-11T07:42:09.699Z,69.51
2018-04-11T07:43:09.608Z,68.36
2018-04-11T07:44:09.516Z,69.13
2018-04-11T07:45:09.412Z,69.45
2018-04-11T07:46:09.341Z,69.93
2018-04-11T07:47:09.234Z,70.60
2018-04-11T07:48:09.129Z,68.94
2018-04-11T07:49:09.036Z,68.84
2018-04-11T07:50:08.946Z,69.51
2018-04-11T07:51:08.842Z,69.42
2018-04-11T07:52:08.752Z,69.70
2018-04-11T07:53:08.661Z,69.51
2018-04-11T07:54:08.557Z,69.70
2018-04-11T07:55:08.466Z,69.89
2018-04-11T07:56:08.379Z,68.55
2018-04-11T07:57:08.272Z,71.27
2018-04-11T07:58:08.180Z,70.60
2018-04-11T07:59:08.091Z,70.98
2018-04-11T08:00:07.988Z,70.47
2018-04-11T08:01:07.899Z,70.70
2018-04-11T08:02:07.808Z,71.66
2018-04-11T08:03:07.784Z,70.60
2018-04-11T08:04:07.611Z,71.27
2018-04-11T08:05:07.522Z,70.21
2018-04-11T08:06:07.418Z,71.56
2018-04-11T08:07:07.326Z,71.46
2018-04-11T08:08:07.237Z,70.60
2018-04-11T08:09:07.145Z,71.56
2018-04-11T08:10:07.064Z,71.94
2018-04-11T08:11:06.954Z,72.03
2018-04-11T08:12:06.848Z,72.71
2018-04-11T08:13:06.759Z,72.71
2018-04-11T08:14:06.654Z,71.84
2018-04-11T08:15:06.570Z,73.47
2018-04-11T08:16:06.485Z,72.84
2018-04-11T08:17:06.368Z,72.90
2018-04-11T08:18:06.282Z,73.19
2018-04-11T08:19:06.190Z,72.27
2018-04-11T08:20:06.110Z,74.27
2018-04-11T08:21:05.993Z,74.57
2018-04-11T08:22:05.901Z,73.80
2018-04-11T08:23:05.799Z,75.65
2018-04-11T08:24:05.708Z,75.71
2018-04-11T08:25:05.616Z,74.47
2018-04-11T08:26:05.513Z,74.66
2018-04-11T08:27:05.424Z,74.95
2018-04-11T08:28:05.331Z,74.27
2018-04-11T08:29:05.231Z,75.62
2018-04-11T08:30:05.138Z,75.23
2018-04-11T08:31:05.047Z,75.14
2018-04-11T08:32:04.944Z,75.23
2018-04-11T08:33:04.853Z,75.23
2018-04-11T08:34:04.775Z,76.81
2018-04-11T08:35:04.658Z,77.67
2018-04-11T08:36:04.568Z,77.80
2018-04-11T08:37:04.477Z,78.96
2018-04-11T08:38:04.373Z,79.34
2018-04-11T08:39:04.278Z,79.96
2018-04-11T08:40:04.191Z,79.47
2018-04-11T08:41:04.089Z,79.82
2018-04-11T08:42:04.005Z,80.20
2018-04-11T08:43:03.906Z,80.58
2018-04-11T08:44:03.804Z,79.44
2018-04-11T08:45:03.714Z,79.34
2018-04-11T08:46:03.623Z,78.86
2018-04-11T08:47:03.532Z,78.99
2018-04-11T08:48:03.429Z,80.43
2018-04-11T08:49:03.338Z,81.40
2018-04-11T08:50:03.250Z,81.30
2018-04-11T08:51:03.168Z,79.76
2018-04-11T08:52:03.055Z,80.43
2018-04-11T08:53:02.966Z,79.76
2018-04-11T08:54:02.870Z,80.20
2018-04-11T08:55:02.784Z,78.96
2018-04-11T08:56:02.677Z,79.63
2018-04-11T08:57:02.585Z,78.25
2018-04-11T08:58:02.495Z,78.44
2018-04-11T08:59:02.403Z,77.58
2018-04-11T09:00:02.302Z,77.86
2018-04-11T09:01:02.210Z,78.72
2018-04-11T09:02:02.119Z,77.00
2018-04-11T09:03:02.029Z,78.05
2018-04-11T09:04:01.937Z,78.53
2018-04-11T09:05:01.836Z,78.63
2018-04-11T09:06:01.743Z,77.13
2018-04-11T09:07:01.658Z,78.28
2018-04-11T09:08:01.563Z,79.91
2018-04-11T09:09:01.467Z,79.05
2018-04-11T09:10:01.369Z,79.53
2018-04-11T09:11:01.278Z,79.72
2018-04-11T09:12:01.175Z,78.86
2018-04-11T09:13:01.086Z,78.00
2018-04-11T09:14:00.994Z,80.01
2018-04-11T09:15:00.900Z,78.38
2018-04-11T09:16:00.798Z,77.13
2018-04-11T09:17:00.712Z,79.53
2018-04-11T09:18:00.616Z,79.24
2018-04-11T09:19:00.526Z,79.24
2018-04-11T09:20:00.423Z,80.40
2018-04-11T09:21:00.331Z,79.24
2018-04-11T09:22:00.240Z,79.82
2018-04-11T09:23:00.149Z,79.47
2018-04-11T09:24:00.046Z,79.76
2018-04-11T09:24:59.956Z,80.05
2018-04-11T09:25:59.864Z,79.76
2018-04-11T09:26:59.762Z,79.72
2018-04-11T09:27:59.670Z,79.34
2018-04-11T09:28:59.579Z,81.40
2018-04-11T09:29:59.488Z,80.24
2018-04-11T09:30:59.390Z,81.01
2018-04-11T09:31:59.302Z,81.10
2018-04-11T09:32:59.223Z,80.82
2018-04-11T09:33:59.113Z,81.43
2018-04-11T09:34:59.009Z,83.87
2018-04-11T09:35:58.922Z,84.50
2018-04-11T09:36:58.827Z,85.31
2018-04-11T09:37:58.737Z,85.35
2018-04-11T09:38:58.633Z,84.23
2018-04-11T09:39:58.544Z,83.12
2018-04-11T09:40:58.456Z,78.88
2018-04-11T09:41:58.410Z,80.87
2018-04-11T09:42:58.271Z,80.91
2018-04-11T09:43:58.181Z,80.23
2018-04-11T09:44:58.076Z,77.58
2018-04-11T09:45:57.986Z,73.99
2018-04-11T09:46:57.897Z,70.38
2018-04-11T09:47:57.806Z,73.82
2018-04-11T09:48:57.713Z,74.45
2018-04-11T09:49:57.623Z,78.08
2018-04-11T09:50:57.544Z,78.08
2018-04-11T09:51:57.506Z,78.65
2018-04-11T09:52:57.363Z,80.63
2018-04-11T09:53:57.271Z,82.65
2018-04-11T09:54:57.181Z,82.17
2018-04-11T09:55:57.090Z,82.75
2018-04-11T09:56:57.000Z,82.81
2018-04-11T09:57:56.908Z,83.92
2018-04-11T09:58:56.818Z,83.92
2018-04-11T09:59:56.726Z,84.21
2018-04-11T10:00:56.641Z,83.92
2018-04-11T10:01:56.545Z,84.07
2018-04-11T10:02:56.454Z,83.40
2018-04-11T10:03:56.363Z,84.94
2018-04-11T10:04:56.278Z,84.26
2018-04-11T10:05:56.182Z,85.41
2018-04-11T10:06:56.100Z,84.84
2018-04-11T10:07:56.001Z,84.36
2018-04-11T10:08:55.910Z,84.64
2018-04-11T10:09:55.824Z,84.36
2018-04-11T10:10:55.717Z,84.64
2018-04-11T10:11:55.625Z,84.94
2018-04-11T10:12:55.533Z,84.74
2018-04-11T10:13:55.444Z,84.84
2018-04-11T10:14:55.353Z,85.61
2018-04-11T10:15:55.262Z,84.84
2018-04-11T10:16:55.170Z,85.22
2018-04-11T10:17:55.080Z,86.13
2018-04-11T10:18:54.990Z,84.64
2018-04-11T10:19:54.886Z,84.17
2018-04-11T10:20:54.795Z,84.45
2018-04-11T10:21:54.703Z,85.66
2018-04-11T10:22:54.616Z,85.08
2018-04-11T10:23:54.522Z,85.03
2018-04-11T10:24:54.494Z,85.61
2018-04-11T10:25:54.341Z,84.94
2018-04-11T10:26:54.237Z,84.78
2018-04-11T10:27:54.147Z,85.27
2018-04-11T10:28:54.056Z,85.36
2018-04-11T10:29:53.967Z,84.88
2018-04-11T10:30:53.874Z,83.92
2018-04-11T10:31:53.774Z,85.22
2018-04-11T10:32:53.680Z,85.46
2018-04-11T10:33:53.602Z,85.46
2018-04-11T10:34:53.498Z,86.04
2018-04-11T10:35:53.408Z,85.32
2018-04-11T10:36:53.317Z,84.98
2018-04-11T10:37:53.217Z,84.98
2018-04-11T10:38:53.122Z,85.55
2018-04-11T10:39:53.031Z,85.75
2018-04-11T10:40:52.941Z,84.98
2018-04-11T10:41:52.851Z,85.17
2018-04-11T10:42:52.761Z,85.36
2018-04-11T10:43:52.656Z,84.78
2018-04-11T10:44:52.565Z,85.51
2018-04-11T10:45:52.474Z,85.13
2018-04-11T10:46:52.384Z,84.94
2018-04-11T10:47:52.305Z,85.13
2018-04-11T10:48:52.202Z,84.36
2018-04-11T10:49:52.099Z,85.13
2018-04-11T10:50:52.007Z,85.51
2018-04-11T10:51:51.922Z,85.61
2018-04-11T10:52:51.859Z,85.80
2018-04-11T10:53:51.737Z,85.32
2018-04-11T10:54:51.646Z,85.03
2018-04-11T10:55:51.543Z,85.13
2018-04-11T10:56:51.451Z,85.71
2018-04-11T10:57:51.364Z,85.61
2018-04-11T10:58:51.270Z,85.99
2018-04-11T10:59:51.190Z,85.32
2018-04-11T11:00:51.111Z,85.46
2018-04-11T11:01:50.984Z,85.99
2018-04-11T11:02:50.893Z,85.99
2018-04-11T11:03:50.803Z,85.13
2018-04-11T11:04:50.711Z,86.28
2018-04-11T11:05:50.622Z,85.89
2018-04-11T11:06:50.530Z,85.94
2018-04-11T11:07:50.427Z,85.94
2018-04-11T11:08:50.337Z,86.13
2018-04-11T11:09:50.244Z,86.13
2018-04-11T11:10:50.154Z,86.13
2018-04-11T11:11:50.063Z,85.27
2018-04-11T11:12:49.971Z,86.13
2018-04-11T11:13:49.874Z,85.94
2018-04-11T11:14:49.777Z,86.08
2018-04-11T11:15:49.688Z,86.18
2018-04-11T11:16:49.597Z,85.31
2018-04-11T11:17:49.507Z,85.60
2018-04-11T11:18:49.414Z,85.40
2018-04-11T11:19:49.313Z,85.02
2018-04-11T11:20:49.221Z,85.75
2018-04-11T11:21:49.130Z,85.36
2018-04-11T11:22:49.091Z,86.13
2018-04-11T11:23:48.948Z,84.78
2018-04-11T11:24:48.859Z,85.55
2018-04-11T11:25:48.767Z,85.75
2018-04-11T11:26:48.665Z,86.13
2018-04-11T11:27:48.575Z,85.46
2018-04-11T11:28:48.496Z,86.22
2018-04-11T11:29:48.392Z,85.17
2018-04-11T11:30:48.299Z,85.55
2018-04-11T11:31:48.210Z,85.55
2018-04-11T11:32:48.132Z,85.55
2018-04-11T11:33:48.029Z,86.42
2018-04-11T11:34:47.925Z,85.75
2018-04-11T11:35:47.834Z,85.21
2018-04-11T11:36:47.743Z,85.31
2018-04-11T11:37:47.654Z,85.93
2018-04-11T11:38:47.600Z,86.22
2018-04-11T11:39:47.470Z,86.26
2018-04-11T11:40:47.379Z,85.83
2018-04-11T11:41:47.289Z,86.02
2018-04-11T11:42:47.187Z,85.69
2018-04-11T11:43:47.095Z,86.18
2018-04-11T11:44:47.005Z,86.08
2018-04-11T11:45:46.918Z,85.98
2018-04-11T11:46:46.821Z,85.50
2018-04-11T11:47:46.732Z,85.84
2018-04-11T11:48:46.640Z,86.32
2018-04-11T11:49:46.551Z,85.69
2018-04-11T11:50:46.458Z,86.27
2018-04-11T11:51:46.368Z,85.78
2018-04-11T11:52:46.265Z,86.36
2018-04-11T11:53:46.175Z,86.18
2018-04-11T11:54:46.084Z,85.94
2018-04-11T11:55:45.992Z,86.04
2018-04-11T11:56:45.903Z,85.65
2018-04-11T11:57:45.810Z,86.13
2018-04-11T11:58:45.721Z,85.27
2018-04-11T11:59:45.629Z,86.13
2018-04-11T12:00:45.539Z,85.55
2018-04-11T12:01:45.447Z,85.36
2018-04-11T12:02:45.348Z,85.65
2018-04-11T12:03:45.255Z,86.32
2018-04-11T12:04:45.162Z,85.46
2018-04-11T12:05:45.072Z,84.98
2018-04-11T12:06:44.980Z,85.17
2018-04-11T12:07:44.890Z,85.36
2018-04-11T12:08:44.799Z,85.36
2018-04-11T12:09:44.709Z,85.07
2018-04-11T12:10:44.608Z,85.55
2018-04-11T12:11:44.518Z,85.17
2018-04-11T12:12:44.424Z,86.22
2018-04-11T12:13:44.331Z,86.13
2018-04-11T12:14:44.242Z,85.36
2018-04-11T12:15:44.150Z,85.75
2018-04-11T12:16:44.064Z,85.36
2018-04-11T12:17:43.957Z,86.04
2018-04-11T12:18:43.867Z,85.78
2018-04-11T12:19:43.778Z,85.88
2018-04-11T12:20:43.684Z,85.84
2018-04-11T12:21:43.594Z,85.88
2018-04-11T12:22:43.506Z,85.17
2018-04-11T12:23:43.413Z,85.84
2018-04-11T12:24:43.309Z,85.55
2018-04-11T12:25:43.217Z,86.80
2018-04-11T12:26:43.128Z,85.55
2018-04-11T12:27:43.035Z,84.98
2018-04-11T12:28:42.946Z,85.55
2018-04-11T12:29:42.854Z,85.84
2018-04-11T12:30:42.765Z,85.17
2018-04-11T12:31:42.661Z,85.41
2018-04-11T12:32:42.568Z,86.04
2018-04-11T12:33:42.480Z,85.07
2018-04-11T12:34:42.388Z,85.94
2018-04-11T12:35:42.297Z,85.36
2018-04-11T12:36:42.205Z,85.94
2018-04-11T12:37:42.121Z,85.94
2018-04-11T12:38:42.013Z,85.07
2018-04-11T12:39:41.921Z,85.46
2018-04-11T12:40:41.831Z,86.18
2018-04-11T12:41:41.740Z,86.65
2018-04-11T12:42:41.649Z,86.36
2018-04-11T12:43:41.558Z,85.69
2018-04-11T12:44:41.459Z,86.18
2018-04-11T12:45:41.365Z,86.56
2018-04-11T12:46:41.273Z,85.88
2018-04-11T12:47:41.183Z,86.75
2018-04-11T12:48:41.091Z,86.04
2018-04-11T12:49:41.002Z,85.07
2018-04-11T12:50:40.910Z,86.52
2018-04-11T12:51:40.807Z,86.42